Time;durP1;ratioP1;P1;durP2;ratioP2;P2;SDS_P1;SDS_P2;PMS_P1;PMS_P2;Temp;Humidity;BMP_temperature;BMP_pressure;BME280_temperature;BME280_humidity;BME280_pressure;Samples;Min_cycle;Max_cycle;Signal;HPM_P1;HPM_P2
2023/01/05 00:01:30;;;;;;;19.95;2.90;;;9.70;99.90;;;;;;5073842;28;20012;-72
2023/01/05 00:03:56;;;;;;;14.57;3.10;;;9.70;99.90;;;;;;5088972;28;20395;-73
2023/01/05 00:06:22;;;;;;;16.40;2.28;;;9.70;99.90;;;;;;5085517;28;20035;-73
2023/01/05 00:08:47;;;;;;;11.38;2.28;;;9.70;99.90;;;;;;5086120;28;20051;-72
2023/01/05 00:22:37;;;;;;;17.10;2.30;;;9.60;99.90;;;;;;5111333;28;20032;-72
2023/01/05 00:25:06;;;;;;;10.32;2.47;;;9.60;99.90;;;;;;5113697;28;20043;-72
2023/01/05 00:27:32;;;;;;;13.57;2.22;;;9.60;99.90;;;;;;5106464;27;20092;-72
2023/01/05 00:29:58;;;;;;;15.95;2.47;;;9.60;99.90;;;;;;5104295;28;20024;-71
2023/01/05 00:32:25;;;;;;;11.55;2.60;;;9.60;99.90;;;;;;5086250;28;20028;-73
2023/01/05 00:34:54;;;;;;;17.70;2.90;;;9.60;99.90;;;;;;5103555;28;20019;-72
2023/01/05 00:37:25;;;;;;;18.63;2.47;;;9.60;99.90;;;;;;5107005;28;20081;-72
2023/01/05 00:39:51;;;;;;;13.05;2.42;;;9.60;99.90;;;;;;5102193;28;20033;-72
2023/01/05 00:42:16;;;;;;;14.00;2.35;;;9.60;99.90;;;;;;5085562;28;20039;-72
2023/01/05 00:44:42;;;;;;;17.33;2.72;;;9.60;99.90;;;;;;5083531;28;20050;-72
2023/01/05 00:47:08;;;;;;;19.92;2.67;;;9.60;99.90;;;;;;5086252;28;20104;-72
2023/01/05 00:49:34;;;;;;;17.77;3.45;;;9.60;99.90;;;;;;5103390;28;20098;-72
2023/01/05 00:51:59;;;;;;;15.60;2.13;;;9.60;99.90;;;;;;5085266;28;20399;-71
2023/01/05 00:54:25;;;;;;;11.52;2.33;;;9.60;99.90;;;;;;5103404;28;20028;-72
2023/01/05 00:56:51;;;;;;;11.35;2.15;;;9.60;99.90;;;;;;5086226;28;20028;-72
2023/01/05 00:59:19;;;;;;;13.82;2.13;;;9.60;99.90;;;;;;5084126;28;20027;-72
2023/01/05 01:01:49;;;;;;;12.98;2.35;;;9.60;99.90;;;;;;5105421;28;20051;-71
2023/01/05 01:04:15;;;;;;;10.60;2.15;;;9.60;99.90;;;;;;5101302;28;20397;-72
2023/01/05 01:06:41;;;;;;;10.52;2.08;;;9.50;99.90;;;;;;5089242;28;20039;-72
2023/01/05 01:09:07;;;;;;;15.98;2.60;;;9.50;99.90;;;;;;5104377;28;20032;-72
2023/01/05 01:11:33;;;;;;;9.50;2.15;;;9.50;99.90;;;;;;5104208;28;20058;-72
2023/01/05 01:13:59;;;;;;;13.07;2.03;;;9.60;99.90;;;;;;5080670;28;20059;-72
2023/01/05 01:16:25;;;;;;;13.25;1.80;;;9.60;99.90;;;;;;5072528;28;20020;-72
2023/01/05 01:18:51;;;;;;;14.50;2.78;;;9.60;99.90;;;;;;5101582;28;20127;-71
2023/01/05 01:21:16;;;;;;;8.93;1.65;;;9.60;99.90;;;;;;5085440;28;20423;-71
2023/01/05 01:23:43;;;;;;;8.10;1.40;;;9.60;99.90;;;;;;5084267;28;20110;-71
2023/01/05 01:26:11;;;;;;;9.05;1.45;;;9.50;99.90;;;;;;5106232;28;20122;-72
2023/01/05 01:28:37;;;;;;;12.05;2.35;;;9.50;99.90;;;;;;5100373;28;20042;-72
2023/01/05 01:31:04;;;;;;;14.45;2.28;;;9.50;99.90;;;;;;5104962;28;20023;-72
2023/01/05 01:33:31;;;;;;;13.15;2.15;;;9.60;99.90;;;;;;5105485;28;20031;-72
2023/01/05 01:35:58;;;;;;;13.90;1.80;;;9.50;99.90;;;;;;5105016;28;20112;-71
2023/01/05 01:38:24;;;;;;;14.07;1.92;;;9.60;99.90;;;;;;5103083;28;20032;-72
2023/01/05 01:40:50;;;;;;;9.88;2.00;;;9.60;99.90;;;;;;5088316;28;20027;-72
2023/01/05 01:43:36;;;;;;;11.10;2.05;;;9.60;99.90;;;;;;5069813;28;20031;-72
2023/01/05 01:46:05;;;;;;;9.77;1.40;;;9.50;99.90;;;;;;5106576;28;20391;-72
2023/01/05 01:48:32;;;;;;;10.43;1.60;;;9.60;99.90;;;;;;5086734;28;20130;-72
2023/01/05 01:51:01;;;;;;;13.98;1.83;;;9.50;99.90;;;;;;5084920;28;20080;-72
2023/01/05 01:53:37;;;;;;;10.57;2.35;;;9.50;99.90;;;;;;5084336;28;20039;-72
2023/01/05 01:56:06;;;;;;;8.63;2.10;;;9.50;99.90;;;;;;5084731;28;20024;-72
2023/01/05 01:58:32;;;;;;;8.25;1.35;;;9.50;99.90;;;;;;5107049;28;20047;-72
2023/01/05 02:01:02;;;;;;;7.55;1.35;;;9.50;99.90;;;;;;5103326;28;20078;-73
2023/01/05 02:03:29;;;;;;;10.77;1.63;;;9.50;99.90;;;;;;5104631;28;20094;-72
2023/01/05 02:05:56;;;;;;;11.68;2.40;;;9.50;99.90;;;;;;5074357;28;20027;-72
2023/01/05 02:08:30;;;;;;;7.07;1.55;;;9.50;99.90;;;;;;5112250;28;20054;-72
2023/01/05 02:11:23;;;;;;;8.57;1.92;;;9.50;99.90;;;;;;5086513;28;20028;-72
2023/01/05 02:13:57;;;;;;;9.80;1.67;;;9.50;99.90;;;;;;5091718;27;20028;-71
2023/01/05 02:16:45;;;;;;;8.85;1.92;;;9.50;99.90;;;;;;5104911;28;20349;-71
2023/01/05 02:19:42;;;;;;;12.90;2.15;;;9.50;99.90;;;;;;5088914;28;20019;-72
2023/01/05 02:22:38;;;;;;;8.45;1.90;;;9.40;99.90;;;;;;5108768;28;20027;-71
2023/01/05 02:25:19;;;;;;;8.98;1.63;;;9.40;99.90;;;;;;5089234;28;20522;-72
2023/01/05 02:28:16;;;;;;;11.20;2.08;;;9.40;99.90;;;;;;5090678;28;20028;-72
2023/01/05 02:30:42;;;;;;;12.60;1.83;;;9.40;99.90;;;;;;5054363;27;20783;-72
2023/01/05 02:33:33;;;;;;;14.02;1.67;;;9.40;99.90;;;;;;5090298;28;20102;-72
2023/01/05 02:36:11;;;;;;;12.43;1.90;;;9.30;99.90;;;;;;5089102;28;20028;-72
2023/01/05 02:39:02;;;;;;;7.97;1.60;;;9.30;99.90;;;;;;5105306;28;20292;-72
2023/01/05 02:41:31;;;;;;;;;;;9.20;99.90;;;;;;5084548;28;20100;-72
2023/01/05 02:43:58;;;;;;;13.10;1.65;;;9.20;99.90;;;;;;5087773;28;19916;-73
2023/01/05 02:46:24;;;;;;;6.97;1.35;;;9.20;99.90;;;;;;5089433;28;20038;-71
2023/01/05 02:48:57;;;;;;;8.23;1.67;;;9.20;99.90;;;;;;5106374;28;20031;-72
2023/01/05 02:51:29;;;;;;;6.82;1.23;;;9.20;99.90;;;;;;5084812;28;20032;-72
2023/01/05 02:54:07;;;;;;;7.85;1.30;;;9.20;99.90;;;;;;5090333;28;20031;-72
2023/01/05 02:56:54;;;;;;;6.38;1.58;;;9.20;99.90;;;;;;5105506;27;20062;-73
2023/01/05 02:59:41;;;;;;;6.95;1.23;;;9.10;99.90;;;;;;5072371;28;20031;-72
2023/01/05 03:02:16;;;;;;;8.55;1.20;;;9.10;99.90;;;;;;5106998;27;20092;-73
2023/01/05 03:04:53;;;;;;;11.75;1.55;;;9.10;99.90;;;;;;5107384;28;20029;-72
2023/01/05 03:07:25;;;;;;;8.10;1.42;;;9.00;99.90;;;;;;5102270;28;20023;-72
2023/01/05 03:09:51;;;;;;;6.43;1.20;;;9.10;99.90;;;;;;5087395;28;20031;-73
2023/01/05 03:15:24;;;;;;;6.20;1.27;;;9.00;99.90;;;;;;5111490;27;20032;-72
2023/01/05 03:18:19;;;;;;;6.45;1.10;;;9.00;99.90;;;;;;5070101;28;20037;-72
2023/01/05 03:20:49;;;;;;;8.95;1.70;;;9.00;99.90;;;;;;5085184;28;20162;-73
2023/01/05 03:37:52;;;;;;;6.32;1.23;;;9.00;99.90;;;;;;5109657;28;20032;-72
2023/01/05 03:40:25;;;;;;;7.35;0.90;;;9.00;99.90;;;;;;5047699;28;20494;-72
2023/01/05 03:42:51;;;;;;;6.07;1.20;;;8.90;99.90;;;;;;5088349;28;20088;-72
2023/01/05 03:45:18;;;;;;;12.35;1.30;;;8.90;99.90;;;;;;5089503;28;20483;-72
2023/01/05 03:47:44;;;;;;;11.35;1.58;;;8.90;99.90;;;;;;5104613;28;20040;-72
2023/01/05 03:50:10;;;;;;;6.47;1.10;;;8.80;99.90;;;;;;5085276;28;20027;-72
2023/01/05 03:52:35;;;;;;;4.53;1.17;;;8.80;99.90;;;;;;5112033;27;20507;-72
2023/01/05 03:55:01;;;;;;;10.15;1.98;;;8.80;99.90;;;;;;5069489;28;20051;-71
2023/01/05 03:57:26;;;;;;;10.30;1.65;;;8.80;99.90;;;;;;5089881;28;20028;-73
2023/01/05 03:59:52;;;;;;;11.73;2.05;;;8.80;99.90;;;;;;5089532;28;20031;-72
2023/01/05 04:02:18;;;;;;;13.18;1.70;;;8.80;99.90;;;;;;5104579;28;20031;-71
2023/01/05 04:04:43;;;;;;;10.93;1.30;;;8.70;99.90;;;;;;5069106;27;20066;-71
2023/01/05 04:07:09;;;;;;;9.73;1.70;;;8.70;99.90;;;;;;5068585;28;20024;-71
2023/01/05 04:09:35;;;;;;;6.22;1.35;;;8.70;99.90;;;;;;5104852;28;20231;-72
2023/01/05 04:12:00;;;;;;;9.95;1.70;;;8.70;99.90;;;;;;5090187;28;20019;-71
2023/01/05 04:14:26;;;;;;;7.95;1.60;;;8.60;99.90;;;;;;5104710;28;20034;-71
2023/01/05 04:16:52;;;;;;;6.03;1.08;;;8.60;99.90;;;;;;5069794;28;20388;-71
2023/01/05 04:19:17;;;;;;;5.95;1.27;;;8.60;99.90;;;;;;5106688;28;20038;-71
2023/01/05 04:21:43;;;;;;;4.35;1.13;;;8.50;99.90;;;;;;5089071;27;20051;-72
2023/01/05 04:24:10;;;;;;;12.75;1.75;;;8.50;99.90;;;;;;5102836;28;20065;-72
2023/01/05 04:26:36;;;;;;;9.32;1.20;;;8.50;99.90;;;;;;5104657;28;20114;-72
2023/01/05 04:29:03;;;;;;;19.40;2.15;;;8.40;99.90;;;;;;5084423;28;20049;-72
2023/01/05 04:31:29;;;;;;;9.75;1.55;;;8.50;99.90;;;;;;5109287;28;20032;-72
2023/01/05 04:33:55;;;;;;;9.02;1.45;;;8.40;99.90;;;;;;5086586;28;20475;-72
2023/01/05 04:36:20;;;;;;;5.25;1.35;;;8.40;99.90;;;;;;5103820;28;20040;-72
2023/01/05 04:38:46;;;;;;;5.72;1.05;;;8.40;99.90;;;;;;5065452;28;20031;-72
2023/01/05 04:41:12;;;;;;;8.93;1.02;;;8.40;99.90;;;;;;5103056;28;20143;-72
2023/01/05 04:43:38;;;;;;;9.30;1.55;;;8.30;99.90;;;;;;5086703;28;20027;-72
2023/01/05 04:46:04;;;;;;;6.82;0.98;;;8.30;99.90;;;;;;5104647;27;20075;-72
2023/01/05 04:48:30;;;;;;;9.27;1.15;;;8.30;99.90;;;;;;5089455;28;20070;-72
2023/01/05 04:50:56;;;;;;;8.30;1.33;;;8.30;99.90;;;;;;5086263;28;20035;-72
2023/01/05 04:53:22;;;;;;;9.82;1.35;;;8.30;99.90;;;;;;5104521;28;20028;-70
2023/01/05 04:55:49;;;;;;;10.10;1.40;;;8.40;99.90;;;;;;5105673;28;20137;-73
2023/01/05 04:58:15;;;;;;;10.48;1.38;;;8.40;99.90;;;;;;5087661;28;20028;-72
2023/01/05 05:00:40;;;;;;;8.63;1.52;;;8.40;99.90;;;;;;5102270;28;20024;-71
2023/01/05 05:03:06;;;;;;;10.75;1.60;;;8.40;99.90;;;;;;5086017;28;20024;-71
2023/01/05 05:05:32;;;;;;;7.20;1.35;;;8.40;99.90;;;;;;5103722;28;20474;-71
2023/01/05 05:07:58;;;;;;;8.60;1.33;;;8.40;99.90;;;;;;5102976;28;20102;-72
2023/01/05 05:10:23;;;;;;;9.93;1.88;;;8.50;99.90;;;;;;5106916;28;20027;-72
2023/01/05 05:12:49;;;;;;;7.57;1.30;;;8.50;99.90;;;;;;5089981;28;20104;-72
2023/01/05 05:15:15;;;;;;;9.15;1.05;;;8.50;99.90;;;;;;5107196;28;20518;-71
2023/01/05 05:17:40;;;;;;;6.50;1.20;;;8.50;99.90;;;;;;5108858;28;20139;-72
2023/01/05 05:20:07;;;;;;;10.18;1.40;;;8.50;99.90;;;;;;5106973;28;20102;-72
2023/01/05 05:22:32;;;;;;;6.63;1.73;;;8.50;99.90;;;;;;5088699;28;20436;-73
2023/01/05 05:24:58;;;;;;;7.15;1.17;;;8.50;99.90;;;;;;5104149;28;20063;-72
2023/01/05 05:27:24;;;;;;;9.10;1.35;;;8.50;99.90;;;;;;5087945;28;20400;-72
2023/01/05 05:29:50;;;;;;;11.48;1.90;;;8.50;99.90;;;;;;5071089;28;20068;-71
2023/01/05 05:32:15;;;;;;;12.30;2.17;;;8.40;99.90;;;;;;5085699;28;20032;-71
2023/01/05 05:34:41;;;;;;;9.40;1.75;;;8.40;99.90;;;;;;5088549;28;20031;-72
2023/01/05 05:37:07;;;;;;;11.93;1.85;;;8.40;99.90;;;;;;5084983;28;20129;-71
2023/01/05 05:39:33;;;;;;;16.15;1.70;;;8.40;99.90;;;;;;5086028;28;20944;-71
2023/01/05 05:41:58;;;;;;;9.57;2.00;;;8.40;99.90;;;;;;5090603;28;20024;-72
2023/01/05 05:44:24;;;;;;;9.05;1.45;;;8.40;99.90;;;;;;5092431;28;20035;-72
2023/01/05 05:46:50;;;;;;;7.25;1.80;;;8.40;99.90;;;;;;5088661;28;20027;-72
2023/01/05 05:49:15;;;;;;;13.25;2.38;;;8.40;99.90;;;;;;5108895;28;20028;-72
2023/01/05 05:51:41;;;;;;;11.27;1.45;;;8.40;99.90;;;;;;5110042;28;20055;-72
2023/01/05 05:54:07;;;;;;;8.70;1.73;;;8.40;99.90;;;;;;5107728;28;21465;-72
2023/01/05 05:56:32;;;;;;;11.60;2.03;;;8.40;99.90;;;;;;5108330;28;20580;-72
2023/01/05 05:58:58;;;;;;;11.65;1.50;;;8.40;99.90;;;;;;5072123;28;20028;-72
2023/01/05 06:01:24;;;;;;;10.02;1.92;;;8.40;99.90;;;;;;5084217;28;20028;-72
2023/01/05 06:03:49;;;;;;;13.35;2.60;;;8.40;99.90;;;;;;5073937;28;20028;-72
2023/01/05 06:06:15;;;;;;;9.63;1.70;;;8.40;99.90;;;;;;5089485;28;20027;-73
2023/01/05 06:08:41;;;;;;;7.75;1.13;;;8.40;99.90;;;;;;5105715;27;20035;-71
2023/01/05 06:11:07;;;;;;;11.27;1.60;;;8.50;99.90;;;;;;5104330;28;20028;-71
2023/01/05 06:13:33;;;;;;;13.43;2.00;;;8.40;99.90;;;;;;5108351;28;20039;-72
2023/01/05 06:15:59;;;;;;;18.10;2.00;;;8.50;99.90;;;;;;5091906;28;20024;-71
2023/01/05 06:18:27;;;;;;;11.43;2.15;;;8.50;99.90;;;;;;5109806;27;20034;-72
2023/01/05 06:20:53;;;;;;;18.10;2.00;;;8.50;99.90;;;;;;5087022;28;20042;-71
2023/01/05 06:23:19;;;;;;;12.07;1.83;;;8.40;99.90;;;;;;5103392;28;20430;-71
2023/01/05 06:25:45;;;;;;;12.50;1.40;;;8.50;99.90;;;;;;5091609;28;20024;-73
2023/01/05 06:28:11;;;;;;;15.77;2.53;;;8.50;99.90;;;;;;5106564;28;20031;-72
2023/01/05 06:30:36;;;;;;;10.65;1.70;;;8.50;99.90;;;;;;5088530;28;20027;-72
2023/01/05 06:33:02;;;;;;;10.63;1.73;;;8.40;99.90;;;;;;5110484;28;20066;-72
2023/01/05 06:35:28;;;;;;;12.88;1.83;;;8.40;99.90;;;;;;5108687;28;20031;-73
2023/01/05 06:37:54;;;;;;;11.70;1.67;;;8.40;99.90;;;;;;5089140;27;20027;-72
2023/01/05 06:40:20;;;;;;;15.30;2.05;;;8.40;99.90;;;;;;5107644;27;20106;-73
2023/01/05 06:42:46;;;;;;;14.23;1.75;;;8.40;99.90;;;;;;5090178;28;20147;-73
2023/01/05 06:45:14;;;;;;;13.95;1.85;;;8.30;99.90;;;;;;5071500;28;20065;-72
2023/01/05 06:47:40;;;;;;;14.52;2.58;;;8.40;99.90;;;;;;5106688;27;20055;-71
2023/01/05 06:50:06;;;;;;;8.52;1.48;;;8.40;99.90;;;;;;5107484;28;20088;-73
2023/01/05 06:52:35;;;;;;;12.48;2.13;;;8.40;99.90;;;;;;5088282;28;20041;-72
2023/01/05 06:55:03;;;;;;;16.50;1.88;;;8.40;99.90;;;;;;5106992;28;20523;-72
2023/01/05 06:57:29;;;;;;;14.52;2.00;;;8.40;99.90;;;;;;5086835;28;20028;-71
2023/01/05 06:59:54;;;;;;;8.52;1.65;;;8.40;99.90;;;;;;5089371;28;20028;-73
2023/01/05 07:02:23;;;;;;;18.10;2.22;;;8.40;99.90;;;;;;5083323;28;20031;-72
2023/01/05 07:04:49;;;;;;;16.00;2.28;;;8.40;99.90;;;;;;5086168;28;20059;-72
2023/01/05 07:07:15;;;;;;;13.73;1.98;;;8.30;99.90;;;;;;5108233;28;20596;-72
2023/01/05 07:09:41;;;;;;;14.52;1.70;;;8.30;99.90;;;;;;5106792;28;20054;-72
2023/01/05 07:12:07;;;;;;;10.93;2.10;;;8.30;99.90;;;;;;5084910;28;20039;-71
2023/01/05 07:14:33;;;;;;;15.63;2.00;;;8.30;99.90;;;;;;5103076;28;20019;-71
2023/01/05 07:16:59;;;;;;;11.18;1.77;;;8.30;99.90;;;;;;5108166;28;20036;-73
2023/01/05 07:19:25;;;;;;;14.25;2.40;;;8.50;99.90;;;;;;5093741;28;20066;-72
2023/01/05 07:21:51;;;;;;;11.98;2.60;;;8.40;99.90;;;;;;5108655;27;20024;-72
2023/01/05 07:24:16;;;;;;;12.55;2.15;;;8.40;99.90;;;;;;5083169;28;20080;-72
2023/01/05 07:26:42;;;;;;;14.20;2.25;;;8.40;99.90;;;;;;5103275;28;20028;-73
2023/01/05 07:29:09;;;;;;;12.05;2.53;;;8.30;99.90;;;;;;5106867;27;20030;-73
2023/01/05 07:31:34;;;;;;;13.88;2.17;;;8.40;99.90;;;;;;5083978;28;20419;-73
2023/01/05 07:34:00;;;;;;;18.17;2.05;;;8.40;99.90;;;;;;5103415;27;20030;-72
2023/01/05 07:36:26;;;;;;;21.75;2.72;;;8.40;99.90;;;;;;5100922;28;20451;-72
2023/01/05 07:38:58;;;;;;;16.52;2.13;;;8.40;99.90;;;;;;5096957;28;20024;-73
2023/01/05 07:41:24;;;;;;;14.07;2.03;;;8.40;99.90;;;;;;5104385;28;20028;-73
2023/01/05 07:43:50;;;;;;;16.08;1.90;;;8.40;99.90;;;;;;5101893;27;20038;-72
2023/01/05 07:46:16;;;;;;;18.75;2.90;;;8.40;99.90;;;;;;5079035;28;20040;-71
2023/01/05 07:48:43;;;;;;;11.38;2.28;;;8.40;99.90;;;;;;5094739;28;20487;-73
2023/01/05 07:51:09;;;;;;;20.42;3.35;;;8.40;99.90;;;;;;5100243;28;20031;-72
2023/01/05 07:53:37;;;;;;;13.98;2.30;;;8.40;99.90;;;;;;5105016;27;20055;-72
2023/01/05 07:56:05;;;;;;;13.55;2.72;;;8.30;99.90;;;;;;5102963;28;20023;-73
2023/01/05 07:58:32;;;;;;;17.83;2.92;;;8.40;99.90;;;;;;5082143;28;20235;-72
2023/01/05 08:01:06;;;;;;;13.95;1.98;;;8.40;99.90;;;;;;5086318;27;20036;-72
2023/01/05 08:03:32;;;;;;;11.75;1.90;;;8.40;99.90;;;;;;5088026;28;20031;-72
2023/01/05 08:06:02;;;;;;;13.73;1.98;;;8.40;99.90;;;;;;5103432;28;20034;-71
2023/01/05 08:08:28;;;;;;;12.25;1.88;;;8.40;99.90;;;;;;5083605;28;20070;-72
2023/01/05 08:10:54;;;;;;;18.58;2.25;;;8.40;99.90;;;;;;5084903;28;20534;-71
2023/01/05 08:16:04;;;;;;;17.17;2.60;;;8.40;99.90;;;;;;5098696;28;20016;-71
2023/01/05 08:18:30;;;;;;;16.75;1.92;;;8.40;99.90;;;;;;5082771;28;20122;-71
2023/01/05 08:20:59;;;;;;;22.02;2.88;;;8.40;99.90;;;;;;5101930;28;20124;-74
2023/01/05 08:23:26;;;;;;;11.43;2.13;;;8.40;99.90;;;;;;5080856;28;20126;-72
2023/01/05 08:25:53;;;;;;;15.88;2.58;;;8.40;99.90;;;;;;5084790;28;20086;-72
2023/01/05 08:28:19;;;;;;;19.73;2.75;;;8.40;99.90;;;;;;5084774;28;20568;-72
2023/01/05 08:30:46;;;;;;;23.35;2.85;;;8.40;99.90;;;;;;5076118;28;20035;-71
2023/01/05 08:33:12;;;;;;;20.13;2.38;;;8.30;99.90;;;;;;5081512;28;20055;-72
2023/01/05 08:35:43;;;;;;;19.95;3.20;;;8.40;99.90;;;;;;5067936;28;20507;-72
2023/01/05 08:38:09;;;;;;;23.63;2.95;;;8.30;99.90;;;;;;5081585;28;22048;-72
2023/01/05 08:40:36;;;;;;;18.65;2.25;;;8.30;99.90;;;;;;5104421;28;20032;-72
2023/01/05 08:43:05;;;;;;;19.83;3.08;;;8.30;99.90;;;;;;5101835;28;20060;-72
2023/01/05 08:45:32;;;;;;;16.80;2.90;;;8.30;99.90;;;;;;5085234;28;20039;-72
2023/01/05 08:47:58;;;;;;;21.85;3.35;;;8.30;99.90;;;;;;5102744;28;20150;-73
2023/01/05 08:50:23;;;;;;;20.58;3.00;;;8.30;99.90;;;;;;5097302;28;20054;-74
2023/01/05 08:52:49;;;;;;;22.20;2.85;;;8.30;99.90;;;;;;5093953;28;20027;-74
2023/01/05 08:55:15;;;;;;;17.13;2.35;;;8.20;99.90;;;;;;5079710;28;20028;-75
2023/01/05 08:57:41;;;;;;;20.15;2.65;;;8.10;99.90;;;;;;5093016;28;20032;-73
2023/01/05 09:00:07;;;;;;;16.17;2.47;;;8.10;99.90;;;;;;5078290;28;20035;-73
2023/01/05 09:02:33;;;;;;;15.07;2.70;;;8.10;99.90;;;;;;5103580;28;20090;-73
2023/01/05 09:04:58;;;;;;;16.00;2.50;;;8.10;99.90;;;;;;5086948;28;20085;-73
2023/01/05 09:07:25;;;;;;;23.05;3.22;;;8.10;99.90;;;;;;5084346;28;20493;-72
2023/01/05 09:09:50;;;;;;;16.65;2.75;;;8.00;99.90;;;;;;5082089;28;20097;-73
2023/01/05 09:12:16;;;;;;;13.55;2.40;;;8.00;99.90;;;;;;5079354;28;20024;-72
2023/01/05 09:14:42;;;;;;;15.68;2.67;;;8.00;99.90;;;;;;5081073;28;20031;-73
2023/01/05 09:17:07;;;;;;;10.77;1.95;;;8.00;99.90;;;;;;5077681;28;20061;-73
2023/01/05 09:19:33;;;;;;;16.80;3.72;;;8.00;99.90;;;;;;5081021;28;20327;-72
2023/01/05 09:21:59;;;;;;;10.68;1.83;;;8.00;99.90;;;;;;5085167;28;20610;-73
2023/01/05 09:24:24;;;;;;;13.13;1.95;;;8.00;99.90;;;;;;5076687;28;20400;-71
2023/01/05 09:26:50;;;;;;;10.20;2.03;;;8.00;99.90;;;;;;5098879;28;20472;-71
2023/01/05 09:29:16;;;;;;;14.27;2.67;;;8.00;99.90;;;;;;5085746;28;20036;-71
2023/01/05 09:31:42;;;;;;;15.50;2.35;;;7.90;99.90;;;;;;5078821;28;20039;-74
2023/01/05 09:34:09;;;;;;;18.88;2.00;;;8.00;99.90;;;;;;5094070;28;20063;-72
2023/01/05 09:36:37;;;;;;;11.93;2.88;;;8.00;99.90;;;;;;5079523;28;20111;-73
2023/01/05 09:39:04;;;;;;;13.90;2.28;;;8.00;99.90;;;;;;5075971;28;20035;-73
2023/01/05 09:41:49;;;;;;;15.20;2.50;;;8.00;99.90;;;;;;5098246;28;20579;-73
2023/01/05 09:44:39;;;;;;;13.90;2.10;;;8.00;99.90;;;;;;5097488;28;20040;-72
2023/01/05 09:47:24;;;;;;;16.02;2.65;;;8.00;99.90;;;;;;5101503;28;20395;-71
2023/01/05 09:49:52;;;;;;;12.95;2.65;;;8.10;99.90;;;;;;5099681;28;20032;-72
2023/01/05 09:52:21;;;;;;;17.85;2.75;;;8.10;99.90;;;;;;5076670;28;20038;-72
2023/01/05 09:54:47;;;;;;;17.50;2.58;;;8.10;99.90;;;;;;5079545;28;20024;-74
2023/01/05 09:57:31;;;;;;;19.83;2.03;;;8.00;99.90;;;;;;5074896;28;20036;-72
2023/01/05 10:00:01;;;;;;;14.77;2.67;;;8.10;99.90;;;;;;5081557;28;20051;-73
2023/01/05 10:02:37;;;;;;;14.77;2.60;;;8.00;99.90;;;;;;5102681;28;20479;-73
2023/01/05 10:05:04;;;;;;;13.57;2.70;;;8.10;99.90;;;;;;5082147;28;20032;-73
2023/01/05 10:07:38;;;;;;;15.93;2.63;;;8.10;99.90;;;;;;5094202;28;20028;-73
2023/01/05 10:10:16;;;;;;;22.40;2.90;;;8.10;99.90;;;;;;5086000;28;20103;-71
2023/01/05 10:13:07;;;;;;;19.00;2.78;;;8.10;99.90;;;;;;5101969;28;20020;-71
2023/01/05 10:15:46;;;;;;;11.25;2.13;;;8.10;99.90;;;;;;5102078;28;20437;-72
2023/01/05 10:18:24;;;;;;;17.40;2.83;;;8.20;99.90;;;;;;5081173;28;20055;-71
2023/01/05 10:21:13;;;;;;;16.77;2.90;;;8.10;99.90;;;;;;5080126;28;20024;-71
2023/01/05 10:24:04;;;;;;;18.52;2.50;;;8.10;99.90;;;;;;5071625;28;20028;-72
2023/01/05 10:26:33;;;;;;;21.25;2.47;;;8.10;99.90;;;;;;5100456;28;20023;-72
2023/01/05 10:29:09;;;;;;;10.18;2.45;;;8.10;99.90;;;;;;5096843;28;20501;-72
2023/01/05 10:32:02;;;;;;;21.95;3.75;;;8.10;99.90;;;;;;5081883;28;20032;-72
2023/01/05 10:34:36;;;;;;;12.00;2.72;;;8.10;99.90;;;;;;5106119;28;20033;-72
2023/01/05 10:37:23;;;;;;;14.25;2.47;;;8.20;99.90;;;;;;5104930;28;20038;-71
2023/01/05 10:39:54;;;;;;;15.45;2.42;;;8.30;99.90;;;;;;5103763;28;20059;-70
2023/01/05 10:42:47;;;;;;;18.65;3.03;;;8.30;99.90;;;;;;5079057;28;20081;-70
2023/01/05 10:45:18;;;;;;;25.52;3.10;;;8.40;99.90;;;;;;5101131;28;20027;-70
2023/01/05 10:47:45;;;;;;;16.95;3.22;;;8.30;99.90;;;;;;5070025;28;20035;-75
2023/01/05 10:50:29;;;;;;;12.48;2.17;;;8.30;99.90;;;;;;5112028;28;20046;-75
2023/01/05 10:52:55;;;;;;;10.57;2.65;;;8.30;99.90;;;;;;5088443;28;20023;-74
2023/01/05 10:55:22;;;;;;;13.40;2.35;;;8.20;99.90;;;;;;5086973;28;21359;-74
2023/01/05 10:57:48;;;;;;;17.45;2.97;;;8.20;99.90;;;;;;5081790;28;20032;-75
2023/01/05 11:00:16;;;;;;;16.35;3.30;;;8.10;99.90;;;;;;5103176;28;20046;-76
2023/01/05 11:02:56;;;;;;;8.93;1.90;;;8.10;99.90;;;;;;5101339;28;20028;-73
2023/01/05 11:05:32;;;;;;;19.58;2.47;;;8.20;99.90;;;;;;5098368;28;20057;-73
2023/01/05 11:08:00;;;;;;;16.92;3.10;;;8.20;99.90;;;;;;5083940;28;20815;-73
2023/01/05 11:10:40;;;;;;;16.38;2.30;;;8.20;99.90;;;;;;5085866;28;20122;-72
2023/01/05 11:13:17;;;;;;;17.80;2.65;;;8.30;99.90;;;;;;5108584;28;20212;-72
2023/01/05 11:15:50;;;;;;;17.98;2.55;;;8.20;99.90;;;;;;5111840;28;20503;-73
2023/01/05 11:18:29;;;;;;;19.05;3.15;;;8.20;99.90;;;;;;5093799;28;20035;-73
2023/01/05 11:21:07;;;;;;;15.48;2.60;;;8.30;99.90;;;;;;5087401;28;20059;-74
2023/01/05 11:23:41;;;;;;;17.20;2.85;;;8.40;99.90;;;;;;5106254;28;20031;-75
2023/01/05 11:26:21;;;;;;;23.30;2.80;;;8.40;99.90;;;;;;5088534;28;20031;-74
2023/01/05 11:29:35;;;;;;;15.45;2.95;;;8.40;99.90;;;;;;5087783;28;20045;-74
2023/01/05 11:32:05;;;;;;;18.20;2.90;;;8.30;99.90;;;;;;5085084;28;20027;-70
2023/01/05 11:34:40;;;;;;;17.95;2.47;;;8.30;99.90;;;;;;5099616;27;20023;-72
2023/01/05 11:37:11;;;;;;;18.80;2.38;;;8.30;99.90;;;;;;5106701;28;20035;-70
2023/01/05 11:39:46;;;;;;;15.30;2.50;;;8.30;99.90;;;;;;5088100;28;20084;-70
2023/01/05 11:42:18;;;;;;;14.65;2.85;;;8.30;99.90;;;;;;5105950;28;20115;-74
2023/01/05 11:45:19;;;;;;;23.15;2.70;;;8.30;99.90;;;;;;5088971;27;20027;-74
2023/01/05 11:47:53;;;;;;;21.35;3.08;;;8.40;99.90;;;;;;5066385;28;20522;-73
2023/01/05 11:50:29;;;;;;;21.02;2.40;;;8.40;99.90;;;;;;5082736;28;20032;-74
2023/01/05 11:53:01;;;;;;;15.27;2.53;;;8.30;99.90;;;;;;5085716;28;20028;-74
2023/01/05 11:55:37;;;;;;;18.60;2.47;;;8.30;99.90;;;;;;5104791;28;20110;-73
2023/01/05 11:58:24;;;;;;;15.55;2.60;;;8.30;99.90;;;;;;5079017;28;20038;-74
2023/01/05 12:01:34;;;;;;;18.40;2.67;;;8.30;99.90;;;;;;5085969;27;20436;-74
2023/01/05 12:04:20;;;;;;;12.30;2.28;;;8.40;99.90;;;;;;5019928;28;20078;-75
2023/01/05 12:07:13;;;;;;;16.27;2.85;;;8.40;99.90;;;;;;5081846;28;20111;-73
2023/01/05 12:09:45;;;;;;;15.75;2.70;;;8.50;99.90;;;;;;5082041;27;20576;-74
2023/01/05 12:12:46;;;;;;;13.73;2.35;;;8.40;99.90;;;;;;5100327;28;20031;-76
2023/01/05 12:15:33;;;;;;;12.77;2.22;;;8.50;99.90;;;;;;5082955;28;20067;-72
2023/01/05 12:18:19;;;;;;;13.32;2.63;;;8.50;99.90;;;;;;5080021;28;20030;-73
2023/01/05 12:21:20;;;;;;;15.07;2.08;;;8.50;99.90;;;;;;5082386;28;20462;-74
2023/01/05 12:23:52;;;;;;;;;;;8.50;99.90;;;;;;5098219;27;20039;-76
2023/01/05 12:26:28;;;;;;;12.88;2.20;;;8.50;99.90;;;;;;5085963;28;19994;-72
2023/01/05 12:29:08;;;;;;;15.43;2.13;;;8.50;99.90;;;;;;5103138;28;20027;-74
2023/01/05 12:31:39;;;;;;;13.60;2.00;;;8.50;99.90;;;;;;5107266;28;20028;-73
2023/01/05 12:34:44;;;;;;;14.43;2.08;;;8.50;99.90;;;;;;5105556;28;20055;-73
2023/01/05 12:37:31;;;;;;;12.13;2.28;;;8.40;99.90;;;;;;5106494;28;20039;-74
2023/01/05 12:40:27;;;;;;;15.57;2.45;;;8.40;99.90;;;;;;5106153;28;20395;-74
2023/01/05 12:43:11;;;;;;;14.18;2.13;;;8.40;99.90;;;;;;5065464;28;20633;-75
2023/01/05 12:46:03;;;;;;;12.10;2.05;;;8.40;99.90;;;;;;5082098;28;20041;-75
2023/01/05 12:48:39;;;;;;;10.73;1.88;;;8.40;99.90;;;;;;5082665;28;20047;-74
2023/01/05 12:51:09;;;;;;;11.88;1.75;;;8.40;99.90;;;;;;5098368;28;20084;-75
2023/01/05 12:53:35;;;;;;;13.25;1.83;;;8.50;99.90;;;;;;5104779;28;20045;-72
2023/01/05 12:56:38;;;;;;;17.05;2.33;;;8.50;99.90;;;;;;5100607;28;20698;-72
2023/01/05 12:59:27;;;;;;;14.45;2.00;;;8.50;99.90;;;;;;5101161;28;20069;-72
2023/01/05 13:02:19;;;;;;;13.80;2.45;;;8.50;99.90;;;;;;5084281;28;20055;-72
2023/01/05 13:05:03;;;;;;;10.98;2.67;;;8.50;99.90;;;;;;5097920;28;20101;-73
2023/01/05 13:07:37;;;;;;;7.65;1.45;;;8.50;99.90;;;;;;5077517;28;20084;-73
2023/01/05 13:10:11;;;;;;;15.05;2.65;;;8.50;99.90;;;;;;5100009;28;20120;-73
2023/01/05 13:12:38;;;;;;;15.32;2.10;;;8.50;99.90;;;;;;5104452;28;21048;-74
2023/01/05 13:15:36;;;;;;;10.50;1.38;;;8.50;99.90;;;;;;5102019;28;20811;-75
2023/01/05 13:18:04;;;;;;;7.57;1.40;;;8.50;99.90;;;;;;5040136;28;20043;-74
2023/01/05 13:20:39;;;;;;;11.23;1.63;;;8.50;99.90;;;;;;5083355;28;20490;-74
2023/01/05 13:23:19;;;;;;;7.45;1.20;;;8.50;99.90;;;;;;5106520;28;20483;-76
2023/01/05 13:26:15;;;;;;;8.17;1.70;;;8.50;99.90;;;;;;5067335;28;20063;-76
2023/01/05 13:28:41;;;;;;;7.32;1.20;;;8.50;99.90;;;;;;5099516;28;20043;-75
2023/01/05 13:31:30;;;;;;;10.07;2.45;;;8.50;99.90;;;;;;5082618;28;20114;-76
2023/01/05 13:33:59;;;;;;;6.20;1.30;;;8.50;99.90;;;;;;5085647;28;20472;-75
2023/01/05 13:36:30;;;;;;;8.32;2.10;;;8.50;99.90;;;;;;5084273;28;20028;-76
2023/01/05 13:39:17;;;;;;;5.10;1.20;;;8.50;99.90;;;;;;5097541;28;20098;-73
2023/01/05 13:42:06;;;;;;;10.50;1.40;;;8.50;99.90;;;;;;5082583;28;20078;-74
2023/01/05 13:44:57;;;;;;;12.55;2.03;;;8.50;99.90;;;;;;5083474;28;20031;-74